sensor_id;sensor_type;location;lat;lon;timestamp;P1;durP1;ratioP1;P2;durP2;ratioP2
28311;SDS011;15572;48.810;9.148;2022-10-19T00:02:00;11.70;;;6.80;;
28311;SDS011;15572;48.810;9.148;2022-10-19T00:06:56;18.90;;;7.60;;
28311;SDS011;15572;48.810;9.148;2022-10-19T00:11:54;13.63;;;7.83;;
28311;SDS011;15572;48.810;9.148;2022-10-19T00:16:51;17.30;;;7.30;;
28311;SDS011;15572;48.810;9.148;2022-10-19T00:21:48;10.93;;;6.00;;
28311;SDS011;15572;48.810;9.148;2022-10-19T00:26:45;12.67;;;5.90;;
28311;SDS011;15572;48.810;9.148;2022-10-19T00:31:43;13.10;;;6.07;;
28311;SDS011;15572;48.810;9.148;2022-10-19T00:36:40;13.40;;;6.90;;
28311;SDS011;15572;48.810;9.148;2022-10-19T00:41:37;11.73;;;7.20;;
28311;SDS011;15572;48.810;9.148;2022-10-19T00:46:35;12.47;;;7.10;;
28311;SDS011;15572;48.810;9.148;2022-10-19T00:51:34;13.37;;;8.27;;
28311;SDS011;15572;48.810;9.148;2022-10-19T00:56:37;12.87;;;7.77;;
28311;SDS011;15572;48.810;9.148;2022-10-19T01:01:36;15.57;;;7.50;;
28311;SDS011;15572;48.810;9.148;2022-10-19T01:06:34;12.13;;;7.53;;
28311;SDS011;15572;48.810;9.148;2022-10-19T01:11:35;12.70;;;7.00;;
28311;SDS011;15572;48.810;9.148;2022-10-19T01:16:42;16.63;;;11.27;;
28311;SDS011;15572;48.810;9.148;2022-10-19T01:21:47;11.77;;;7.57;;
28311;SDS011;15572;48.810;9.148;2022-10-19T01:32:18;16.43;;;8.40;;
28311;SDS011;15572;48.810;9.148;2022-10-19T01:37:21;17.57;;;8.30;;
28311;SDS011;15572;48.810;9.148;2022-10-19T01:42:27;13.53;;;7.40;;
28311;SDS011;15572;48.810;9.148;2022-10-19T01:47:30;12.73;;;7.70;;
28311;SDS011;15572;48.810;9.148;2022-10-19T01:52:31;12.40;;;7.67;;
28311;SDS011;15572;48.810;9.148;2022-10-19T01:57:29;12.30;;;7.77;;
28311;SDS011;15572;48.810;9.148;2022-10-19T02:02:30;12.13;;;8.30;;
28311;SDS011;15572;48.810;9.148;2022-10-19T02:07:26;12.13;;;7.33;;
28311;SDS011;15572;48.810;9.148;2022-10-19T02:12:23;16.27;;;9.00;;
28311;SDS011;15572;48.810;9.148;2022-10-19T02:17:23;17.87;;;8.47;;
28311;SDS011;15572;48.810;9.148;2022-10-19T02:22:23;17.73;;;10.00;;
28311;SDS011;15572;48.810;9.148;2022-10-19T02:27:20;23.13;;;10.23;;
28311;SDS011;15572;48.810;9.148;2022-10-19T02:32:17;22.13;;;10.80;;
28311;SDS011;15572;48.810;9.148;2022-10-19T02:37:13;23.40;;;12.40;;
28311;SDS011;15572;48.810;9.148;2022-10-19T02:42:12;30.10;;;12.87;;
28311;SDS011;15572;48.810;9.148;2022-10-19T02:47:14;32.30;;;12.60;;
28311;SDS011;15572;48.810;9.148;2022-10-19T02:52:13;29.10;;;13.10;;
28311;SDS011;15572;48.810;9.148;2022-10-19T02:57:15;42.23;;;14.47;;
28311;SDS011;15572;48.810;9.148;2022-10-19T03:02:12;44.77;;;15.40;;
28311;SDS011;15572;48.810;9.148;2022-10-19T03:07:10;41.87;;;14.27;;
28311;SDS011;15572;48.810;9.148;2022-10-19T03:12:08;41.23;;;16.17;;
28311;SDS011;15572;48.810;9.148;2022-10-19T03:17:07;43.53;;;15.47;;
28311;SDS011;15572;48.810;9.148;2022-10-19T03:22:04;45.60;;;15.83;;
28311;SDS011;15572;48.810;9.148;2022-10-19T03:27:01;45.20;;;16.03;;
28311;SDS011;15572;48.810;9.148;2022-10-19T03:31:57;47.63;;;15.80;;
28311;SDS011;15572;48.810;9.148;2022-10-19T03:36:55;44.10;;;15.90;;
28311;SDS011;15572;48.810;9.148;2022-10-19T03:41:53;50.10;;;18.37;;
28311;SDS011;15572;48.810;9.148;2022-10-19T03:46:49;51.13;;;17.63;;
28311;SDS011;15572;48.810;9.148;2022-10-19T03:51:46;54.17;;;18.17;;
28311;SDS011;15572;48.810;9.148;2022-10-19T03:56:44;60.77;;;19.57;;
28311;SDS011;15572;48.810;9.148;2022-10-19T04:01:41;54.87;;;22.77;;
28311;SDS011;15572;48.810;9.148;2022-10-19T04:06:42;55.00;;;21.73;;
28311;SDS011;15572;48.810;9.148;2022-10-19T04:11:40;62.67;;;23.43;;
28311;SDS011;15572;48.810;9.148;2022-10-19T04:16:38;59.47;;;22.60;;
28311;SDS011;15572;48.810;9.148;2022-10-19T04:21:36;54.80;;;21.50;;
28311;SDS011;15572;48.810;9.148;2022-10-19T04:26:37;51.07;;;21.40;;
28311;SDS011;15572;48.810;9.148;2022-10-19T04:31:35;50.77;;;20.23;;
28311;SDS011;15572;48.810;9.148;2022-10-19T04:36:34;50.57;;;21.53;;
28311;SDS011;15572;48.810;9.148;2022-10-19T04:41:31;46.30;;;19.60;;
28311;SDS011;15572;48.810;9.148;2022-10-19T04:46:28;47.77;;;20.97;;
28311;SDS011;15572;48.810;9.148;2022-10-19T04:51:26;49.03;;;19.03;;
28311;SDS011;15572;48.810;9.148;2022-10-19T04:56:24;51.27;;;19.77;;
28311;SDS011;15572;48.810;9.148;2022-10-19T05:01:22;46.33;;;19.03;;
28311;SDS011;15572;48.810;9.148;2022-10-19T05:06:19;52.33;;;19.50;;
28311;SDS011;15572;48.810;9.148;2022-10-19T05:11:16;45.97;;;20.33;;
28311;SDS011;15572;48.810;9.148;2022-10-19T05:16:14;43.77;;;21.43;;
28311;SDS011;15572;48.810;9.148;2022-10-19T05:21:13;42.03;;;22.27;;
28311;SDS011;15572;48.810;9.148;2022-10-19T05:26:11;46.43;;;23.07;;
28311;SDS011;15572;48.810;9.148;2022-10-19T05:31:09;41.10;;;21.80;;
28311;SDS011;15572;48.810;9.148;2022-10-19T05:36:15;44.73;;;22.83;;
28311;SDS011;15572;48.810;9.148;2022-10-19T05:46:09;41.87;;;21.87;;
28311;SDS011;15572;48.810;9.148;2022-10-19T05:51:14;33.87;;;21.80;;
28311;SDS011;15572;48.810;9.148;2022-10-19T05:56:14;36.67;;;21.43;;
28311;SDS011;15572;48.810;9.148;2022-10-19T06:01:13;29.60;;;20.30;;
28311;SDS011;15572;48.810;9.148;2022-10-19T06:06:12;31.37;;;20.37;;
28311;SDS011;15572;48.810;9.148;2022-10-19T06:11:11;31.43;;;20.07;;
28311;SDS011;15572;48.810;9.148;2022-10-19T06:16:09;29.80;;;19.67;;
28311;SDS011;15572;48.810;9.148;2022-10-19T06:21:07;27.43;;;19.43;;
28311;SDS011;15572;48.810;9.148;2022-10-19T06:26:11;28.60;;;17.77;;
28311;SDS011;15572;48.810;9.148;2022-10-19T06:31:26;26.83;;;17.40;;
28311;SDS011;15572;48.810;9.148;2022-10-19T06:36:29;28.83;;;18.37;;
28311;SDS011;15572;48.810;9.148;2022-10-19T06:41:28;24.80;;;16.43;;
28311;SDS011;15572;48.810;9.148;2022-10-19T06:46:25;19.83;;;13.57;;
28311;SDS011;15572;48.810;9.148;2022-10-19T06:51:23;24.33;;;15.07;;
28311;SDS011;15572;48.810;9.148;2022-10-19T06:56:22;25.53;;;14.97;;
28311;SDS011;15572;48.810;9.148;2022-10-19T07:07:08;23.43;;;16.33;;
28311;SDS011;15572;48.810;9.148;2022-10-19T07:12:05;28.70;;;17.50;;
28311;SDS011;15572;48.810;9.148;2022-10-19T07:17:02;25.90;;;17.33;;
28311;SDS011;15572;48.810;9.148;2022-10-19T07:21:59;26.97;;;17.63;;
28311;SDS011;15572;48.810;9.148;2022-10-19T07:26:56;35.57;;;18.70;;
28311;SDS011;15572;48.810;9.148;2022-10-19T07:31:53;24.73;;;17.40;;
28311;SDS011;15572;48.810;9.148;2022-10-19T07:36:49;26.33;;;17.30;;
28311;SDS011;15572;48.810;9.148;2022-10-19T07:41:46;24.43;;;17.17;;
28311;SDS011;15572;48.810;9.148;2022-10-19T07:46:44;26.47;;;15.60;;
28311;SDS011;15572;48.810;9.148;2022-10-19T07:51:41;19.50;;;14.40;;
28311;SDS011;15572;48.810;9.148;2022-10-19T07:56:38;18.50;;;13.97;;
28311;SDS011;15572;48.810;9.148;2022-10-19T08:01:37;18.83;;;13.70;;
28311;SDS011;15572;48.810;9.148;2022-10-19T08:06:37;19.80;;;14.10;;
28311;SDS011;15572;48.810;9.148;2022-10-19T08:11:34;29.37;;;18.93;;
28311;SDS011;15572;48.810;9.148;2022-10-19T08:16:31;20.67;;;15.00;;
28311;SDS011;15572;48.810;9.148;2022-10-19T08:21:31;16.90;;;12.57;;
28311;SDS011;15572;48.810;9.148;2022-10-19T08:26:29;18.60;;;11.97;;
28311;SDS011;15572;48.810;9.148;2022-10-19T08:31:27;20.00;;;11.70;;
28311;SDS011;15572;48.810;9.148;2022-10-19T08:36:24;17.07;;;11.43;;
28311;SDS011;15572;48.810;9.148;2022-10-19T08:41:23;13.60;;;10.23;;
28311;SDS011;15572;48.810;9.148;2022-10-19T08:46:30;16.23;;;10.80;;
28311;SDS011;15572;48.810;9.148;2022-10-19T08:51:36;14.50;;;10.57;;
28311;SDS011;15572;48.810;9.148;2022-10-19T08:56:39;13.90;;;9.47;;
28311;SDS011;15572;48.810;9.148;2022-10-19T09:01:44;14.90;;;9.57;;
28311;SDS011;15572;48.810;9.148;2022-10-19T09:06:50;11.53;;;9.03;;
28311;SDS011;15572;48.810;9.148;2022-10-19T09:12:05;12.03;;;8.30;;
28311;SDS011;15572;48.810;9.148;2022-10-19T09:17:05;11.93;;;8.93;;
28311;SDS011;15572;48.810;9.148;2022-10-19T09:22:11;11.00;;;8.20;;
28311;SDS011;15572;48.810;9.148;2022-10-19T09:27:15;12.13;;;7.70;;
28311;SDS011;15572;48.810;9.148;2022-10-19T09:32:18;9.77;;;7.30;;
28311;SDS011;15572;48.810;9.148;2022-10-19T09:37:17;10.87;;;7.47;;
28311;SDS011;15572;48.810;9.148;2022-10-19T09:42:17;10.80;;;7.70;;
28311;SDS011;15572;48.810;9.148;2022-10-19T09:52:38;11.40;;;7.93;;
28311;SDS011;15572;48.810;9.148;2022-10-19T09:57:40;10.27;;;7.17;;
28311;SDS011;15572;48.810;9.148;2022-10-19T10:02:37;9.43;;;6.10;;
28311;SDS011;15572;48.810;9.148;2022-10-19T10:07:35;7.13;;;6.07;;
28311;SDS011;15572;48.810;9.148;2022-10-19T10:12:33;6.43;;;5.30;;
28311;SDS011;15572;48.810;9.148;2022-10-19T10:17:30;8.03;;;5.33;;
28311;SDS011;15572;48.810;9.148;2022-10-19T10:22:28;6.70;;;5.07;;
28311;SDS011;15572;48.810;9.148;2022-10-19T10:27:31;6.90;;;4.63;;
28311;SDS011;15572;48.810;9.148;2022-10-19T10:32:29;10.57;;;5.40;;
28311;SDS011;15572;48.810;9.148;2022-10-19T10:37:27;5.17;;;4.67;;
28311;SDS011;15572;48.810;9.148;2022-10-19T10:42:27;6.50;;;4.60;;
28311;SDS011;15572;48.810;9.148;2022-10-19T10:47:30;5.40;;;4.53;;
28311;SDS011;15572;48.810;9.148;2022-10-19T10:52:27;5.17;;;4.33;;
28311;SDS011;15572;48.810;9.148;2022-10-19T10:57:25;5.27;;;4.03;;
28311;SDS011;15572;48.810;9.148;2022-10-19T11:02:33;5.77;;;4.20;;
28311;SDS011;15572;48.810;9.148;2022-10-19T11:07:34;6.43;;;3.97;;
28311;SDS011;15572;48.810;9.148;2022-10-19T11:12:36;5.53;;;4.23;;
28311;SDS011;15572;48.810;9.148;2022-10-19T11:17:36;5.10;;;3.60;;
28311;SDS011;15572;48.810;9.148;2022-10-19T11:22:43;5.90;;;4.07;;
28311;SDS011;15572;48.810;9.148;2022-10-19T11:27:46;5.87;;;3.77;;
28311;SDS011;15572;48.810;9.148;2022-10-19T11:32:59;7.10;;;3.90;;
28311;SDS011;15572;48.810;9.148;2022-10-19T11:38:04;4.40;;;3.30;;
28311;SDS011;15572;48.810;9.148;2022-10-19T11:43:11;4.67;;;3.10;;
28311;SDS011;15572;48.810;9.148;2022-10-19T11:48:21;5.63;;;3.13;;
28311;SDS011;15572;48.810;9.148;2022-10-19T11:53:32;7.73;;;3.90;;
28311;SDS011;15572;48.810;9.148;2022-10-19T11:58:38;4.28;;;3.20;;
28311;SDS011;15572;48.810;9.148;2022-10-19T12:03:51;5.70;;;3.65;;
28311;SDS011;15572;48.810;9.148;2022-10-19T12:09:18;6.40;;;3.83;;
28311;SDS011;15572;48.810;9.148;2022-10-19T12:14:23;4.82;;;3.45;;
28311;SDS011;15572;48.810;9.148;2022-10-19T12:19:25;3.75;;;3.25;;
28311;SDS011;15572;48.810;9.148;2022-10-19T12:24:24;8.48;;;4.35;;
28311;SDS011;15572;48.810;9.148;2022-10-19T12:29:23;7.80;;;4.50;;
28311;SDS011;15572;48.810;9.148;2022-10-19T12:34:29;3.83;;;3.28;;
28311;SDS011;15572;48.810;9.148;2022-10-19T12:39:32;5.00;;;3.00;;
28311;SDS011;15572;48.810;9.148;2022-10-19T12:44:43;5.38;;;3.28;;
28311;SDS011;15572;48.810;9.148;2022-10-19T12:50:07;7.15;;;4.22;;
28311;SDS011;15572;48.810;9.148;2022-10-19T12:55:11;5.93;;;4.10;;
28311;SDS011;15572;48.810;9.148;2022-10-19T13:00:19;8.00;;;4.45;;
28311;SDS011;15572;48.810;9.148;2022-10-19T13:05:20;6.93;;;4.45;;
28311;SDS011;15572;48.810;9.148;2022-10-19T13:10:18;4.50;;;4.10;;
28311;SDS011;15572;48.810;9.148;2022-10-19T13:20:50;4.70;;;4.30;;
28311;SDS011;15572;48.810;9.148;2022-10-19T13:25:47;6.68;;;5.57;;
28311;SDS011;15572;48.810;9.148;2022-10-19T13:31:28;5.20;;;4.70;;
28311;SDS011;15572;48.810;9.148;2022-10-19T13:36:28;7.78;;;3.85;;
28311;SDS011;15572;48.810;9.148;2022-10-19T13:41:26;7.43;;;4.22;;
28311;SDS011;15572;48.810;9.148;2022-10-19T13:46:25;9.82;;;4.15;;
28311;SDS011;15572;48.810;9.148;2022-10-19T13:51:37;5.57;;;4.10;;
28311;SDS011;15572;48.810;9.148;2022-10-19T13:56:52;4.85;;;3.70;;
28311;SDS011;15572;48.810;9.148;2022-10-19T14:02:15;4.00;;;3.60;;
28311;SDS011;15572;48.810;9.148;2022-10-19T14:07:31;5.22;;;3.25;;
28311;SDS011;15572;48.810;9.148;2022-10-19T14:12:35;5.03;;;3.05;;
28311;SDS011;15572;48.810;9.148;2022-10-19T14:17:39;5.70;;;3.22;;
28311;SDS011;15572;48.810;9.148;2022-10-19T14:22:38;3.80;;;3.17;;
28311;SDS011;15572;48.810;9.148;2022-10-19T14:27:34;5.15;;;3.22;;
28311;SDS011;15572;48.810;9.148;2022-10-19T14:32:32;4.78;;;3.30;;
28311;SDS011;15572;48.810;9.148;2022-10-19T14:37:29;3.28;;;2.97;;
28311;SDS011;15572;48.810;9.148;2022-10-19T14:42:38;7.97;;;3.05;;
28311;SDS011;15572;48.810;9.148;2022-10-19T14:47:36;4.65;;;2.60;;
28311;SDS011;15572;48.810;9.148;2022-10-19T14:52:46;3.33;;;3.03;;
28311;SDS011;15572;48.810;9.148;2022-10-19T14:57:48;3.22;;;2.55;;
28311;SDS011;15572;48.810;9.148;2022-10-19T15:02:47;3.05;;;2.67;;
28311;SDS011;15572;48.810;9.148;2022-10-19T15:07:51;4.72;;;3.58;;
28311;SDS011;15572;48.810;9.148;2022-10-19T15:12:51;4.55;;;3.55;;
28311;SDS011;15572;48.810;9.148;2022-10-19T15:17:53;6.28;;;3.97;;
28311;SDS011;15572;48.810;9.148;2022-10-19T15:22:51;4.65;;;3.60;;
28311;SDS011;15572;48.810;9.148;2022-10-19T15:27:48;6.47;;;3.58;;
28311;SDS011;15572;48.810;9.148;2022-10-19T15:32:47;4.57;;;4.10;;
28311;SDS011;15572;48.810;9.148;2022-10-19T15:37:46;4.60;;;4.20;;
28311;SDS011;15572;48.810;9.148;2022-10-19T15:42:44;5.13;;;4.25;;
28311;SDS011;15572;48.810;9.148;2022-10-19T15:47:44;4.40;;;4.00;;
28311;SDS011;15572;48.810;9.148;2022-10-19T15:53:12;6.15;;;3.85;;
28311;SDS011;15572;48.810;9.148;2022-10-19T15:58:09;5.07;;;4.30;;
28311;SDS011;15572;48.810;9.148;2022-10-19T16:03:07;5.93;;;5.07;;
28311;SDS011;15572;48.810;9.148;2022-10-19T16:08:05;6.27;;;5.20;;
28311;SDS011;15572;48.810;9.148;2022-10-19T16:13:01;9.33;;;5.60;;
28311;SDS011;15572;48.810;9.148;2022-10-19T16:17:58;6.45;;;4.82;;
28311;SDS011;15572;48.810;9.148;2022-10-19T16:22:55;6.60;;;5.32;;
28311;SDS011;15572;48.810;9.148;2022-10-19T16:27:53;6.53;;;5.00;;
28311;SDS011;15572;48.810;9.148;2022-10-19T16:32:49;7.57;;;5.70;;
28311;SDS011;15572;48.810;9.148;2022-10-19T16:37:46;7.90;;;5.97;;
28311;SDS011;15572;48.810;9.148;2022-10-19T16:42:42;7.47;;;6.27;;
28311;SDS011;15572;48.810;9.148;2022-10-19T16:47:40;10.20;;;6.10;;
28311;SDS011;15572;48.810;9.148;2022-10-19T16:52:37;9.73;;;5.97;;
28311;SDS011;15572;48.810;9.148;2022-10-19T16:57:33;7.10;;;6.27;;
28311;SDS011;15572;48.810;9.148;2022-10-19T17:02:31;8.57;;;6.50;;
28311;SDS011;15572;48.810;9.148;2022-10-19T17:07:29;11.27;;;6.60;;
28311;SDS011;15572;48.810;9.148;2022-10-19T17:12:25;10.83;;;6.73;;
28311;SDS011;15572;48.810;9.148;2022-10-19T17:17:22;9.87;;;6.90;;
28311;SDS011;15572;48.810;9.148;2022-10-19T17:22:18;12.37;;;7.47;;
28311;SDS011;15572;48.810;9.148;2022-10-19T17:27:16;9.23;;;7.67;;
28311;SDS011;15572;48.810;9.148;2022-10-19T17:32:12;9.80;;;7.07;;
28311;SDS011;15572;48.810;9.148;2022-10-19T17:37:09;9.23;;;7.53;;
28311;SDS011;15572;48.810;9.148;2022-10-19T17:42:05;8.00;;;7.20;;
28311;SDS011;15572;48.810;9.148;2022-10-19T17:47:03;10.97;;;8.13;;
28311;SDS011;15572;48.810;9.148;2022-10-19T17:52:00;11.20;;;7.67;;
28311;SDS011;15572;48.810;9.148;2022-10-19T17:56:56;9.53;;;8.13;;
28311;SDS011;15572;48.810;9.148;2022-10-19T18:01:54;8.93;;;8.03;;
28311;SDS011;15572;48.810;9.148;2022-10-19T18:06:52;9.10;;;8.03;;
28311;SDS011;15572;48.810;9.148;2022-10-19T18:11:48;9.33;;;8.33;;
28311;SDS011;15572;48.810;9.148;2022-10-19T18:16:45;13.37;;;8.50;;
28311;SDS011;15572;48.810;9.148;2022-10-19T18:21:43;10.80;;;8.20;;
28311;SDS011;15572;48.810;9.148;2022-10-19T18:26:43;10.10;;;8.57;;
28311;SDS011;15572;48.810;9.148;2022-10-19T18:31:39;11.23;;;8.67;;
28311;SDS011;15572;48.810;9.148;2022-10-19T18:36:36;12.47;;;9.33;;
28311;SDS011;15572;48.810;9.148;2022-10-19T18:41:33;15.43;;;10.87;;
28311;SDS011;15572;48.810;9.148;2022-10-19T18:46:31;15.70;;;10.50;;
28311;SDS011;15572;48.810;9.148;2022-10-19T18:51:29;15.00;;;10.30;;
28311;SDS011;15572;48.810;9.148;2022-10-19T18:56:26;13.07;;;9.37;;
28311;SDS011;15572;48.810;9.148;2022-10-19T19:01:24;12.83;;;10.20;;
28311;SDS011;15572;48.810;9.148;2022-10-19T19:06:24;14.77;;;9.50;;
28311;SDS011;15572;48.810;9.148;2022-10-19T19:11:24;13.00;;;9.90;;
28311;SDS011;15572;48.810;9.148;2022-10-19T19:16:23;11.87;;;9.63;;
28311;SDS011;15572;48.810;9.148;2022-10-19T19:21:20;13.70;;;10.73;;
28311;SDS011;15572;48.810;9.148;2022-10-19T19:26:20;12.40;;;10.23;;
28311;SDS011;15572;48.810;9.148;2022-10-19T19:31:18;16.33;;;10.70;;
28311;SDS011;15572;48.810;9.148;2022-10-19T19:36:15;14.63;;;11.73;;
28311;SDS011;15572;48.810;9.148;2022-10-19T19:41:13;15.70;;;11.10;;
28311;SDS011;15572;48.810;9.148;2022-10-19T19:46:13;15.93;;;10.20;;
28311;SDS011;15572;48.810;9.148;2022-10-19T19:51:12;15.93;;;10.07;;
28311;SDS011;15572;48.810;9.148;2022-10-19T19:56:09;16.33;;;10.73;;
28311;SDS011;15572;48.810;9.148;2022-10-19T20:01:08;17.30;;;11.87;;
28311;SDS011;15572;48.810;9.148;2022-10-19T20:06:06;18.60;;;12.80;;
28311;SDS011;15572;48.810;9.148;2022-10-19T20:11:04;19.77;;;13.53;;
28311;SDS011;15572;48.810;9.148;2022-10-19T20:16:05;20.23;;;13.17;;
28311;SDS011;15572;48.810;9.148;2022-10-19T20:21:03;16.23;;;12.73;;
28311;SDS011;15572;48.810;9.148;2022-10-19T20:26:02;18.80;;;12.33;;
28311;SDS011;15572;48.810;9.148;2022-10-19T20:30:59;17.30;;;12.77;;
28311;SDS011;15572;48.810;9.148;2022-10-19T20:36:01;14.93;;;12.10;;
28311;SDS011;15572;48.810;9.148;2022-10-19T20:41:03;17.30;;;11.97;;
28311;SDS011;15572;48.810;9.148;2022-10-19T20:46:00;14.63;;;12.17;;
28311;SDS011;15572;48.810;9.148;2022-10-19T20:51:11;18.00;;;12.20;;
28311;SDS011;15572;48.810;9.148;2022-10-19T20:56:10;14.63;;;11.63;;
28311;SDS011;15572;48.810;9.148;2022-10-19T21:01:09;18.27;;;11.33;;
28311;SDS011;15572;48.810;9.148;2022-10-19T21:06:07;15.30;;;12.03;;
28311;SDS011;15572;48.810;9.148;2022-10-19T21:11:12;13.37;;;10.53;;
28311;SDS011;15572;48.810;9.148;2022-10-19T21:16:10;15.57;;;10.77;;
28311;SDS011;15572;48.810;9.148;2022-10-19T21:21:09;15.97;;;10.67;;
28311;SDS011;15572;48.810;9.148;2022-10-19T21:26:09;13.30;;;10.30;;
28311;SDS011;15572;48.810;9.148;2022-10-19T21:31:08;16.30;;;11.43;;
28311;SDS011;15572;48.810;9.148;2022-10-19T21:36:07;16.37;;;11.07;;
28311;SDS011;15572;48.810;9.148;2022-10-19T21:41:07;14.73;;;11.47;;
28311;SDS011;15572;48.810;9.148;2022-10-19T21:46:10;21.10;;;12.03;;
28311;SDS011;15572;48.810;9.148;2022-10-19T21:51:13;16.10;;;11.40;;
28311;SDS011;15572;48.810;9.148;2022-10-19T21:56:16;15.30;;;11.83;;
28311;SDS011;15572;48.810;9.148;2022-10-19T22:01:15;16.27;;;12.00;;
28311;SDS011;15572;48.810;9.148;2022-10-19T22:06:12;14.13;;;10.97;;
28311;SDS011;15572;48.810;9.148;2022-10-19T22:11:10;16.53;;;11.80;;
28311;SDS011;15572;48.810;9.148;2022-10-19T22:16:09;16.53;;;11.50;;
28311;SDS011;15572;48.810;9.148;2022-10-19T22:21:09;19.20;;;12.20;;
28311;SDS011;15572;48.810;9.148;2022-10-19T22:26:11;17.40;;;10.67;;
28311;SDS011;15572;48.810;9.148;2022-10-19T22:31:08;17.43;;;10.60;;
28311;SDS011;15572;48.810;9.148;2022-10-19T22:36:06;15.93;;;10.67;;
28311;SDS011;15572;48.810;9.148;2022-10-19T22:41:06;14.10;;;11.10;;
28311;SDS011;15572;48.810;9.148;2022-10-19T22:46:03;17.67;;;10.97;;
28311;SDS011;15572;48.810;9.148;2022-10-19T22:51:00;16.17;;;10.87;;
28311;SDS011;15572;48.810;9.148;2022-10-19T22:55:57;19.10;;;11.30;;
28311;SDS011;15572;48.810;9.148;2022-10-19T23:01:01;20.97;;;11.00;;
28311;SDS011;15572;48.810;9.148;2022-10-19T23:05:59;20.00;;;11.77;;
28311;SDS011;15572;48.810;9.148;2022-10-19T23:10:55;19.13;;;11.10;;
28311;SDS011;15572;48.810;9.148;2022-10-19T23:15:53;14.33;;;10.53;;
28311;SDS011;15572;48.810;9.148;2022-10-19T23:20:53;16.10;;;11.03;;
28311;SDS011;15572;48.810;9.148;2022-10-19T23:26:00;14.17;;;10.53;;
28311;SDS011;15572;48.810;9.148;2022-10-19T23:31:03;16.33;;;9.80;;
28311;SDS011;15572;48.810;9.148;2022-10-19T23:36:02;15.30;;;11.03;;
28311;SDS011;15572;48.810;9.148;2022-10-19T23:41:00;15.13;;;11.53;;
28311;SDS011;15572;48.810;9.148;2022-10-19T23:45:57;16.30;;;10.93;;
28311;SDS011;15572;48.810;9.148;2022-10-19T23:50:58;17.70;;;10.70;;
28311;SDS011;15572;48.810;9.148;2022-10-19T23:55:57;15.63;;;11.23;;
